sensor_id;sensor_type;location;lat;lon;timestamp;temperature;humidity
27492;DHT22;14927;51.210;6.838;2023-08-24T00:00:19;24.30;52.90
27492;DHT22;14927;51.210;6.838;2023-08-24T00:03:05;24.30;53.00
27492;DHT22;14927;51.210;6.838;2023-08-24T00:05:49;24.30;53.00
27492;DHT22;14927;51.210;6.838;2023-08-24T00:08:34;24.20;52.90
27492;DHT22;14927;51.210;6.838;2023-08-24T00:11:18;24.20;53.00
27492;DHT22;14927;51.210;6.838;2023-08-24T00:14:03;24.20;53.10
27492;DHT22;14927;51.210;6.838;2023-08-24T00:16:48;24.20;53.30
27492;DHT22;14927;51.210;6.838;2023-08-24T00:19:33;24.10;53.40
27492;DHT22;14927;51.210;6.838;2023-08-24T00:22:18;24.20;53.60
27492;DHT22;14927;51.210;6.838;2023-08-24T00:25:03;24.10;53.50
27492;DHT22;14927;51.210;6.838;2023-08-24T00:27:47;24.10;53.60
27492;DHT22;14927;51.210;6.838;2023-08-24T00:30:32;24.10;53.70
27492;DHT22;14927;51.210;6.838;2023-08-24T00:33:16;24.00;53.70
27492;DHT22;14927;51.210;6.838;2023-08-24T00:36:02;24.00;53.70
27492;DHT22;14927;51.210;6.838;2023-08-24T00:38:46;24.00;53.90
27492;DHT22;14927;51.210;6.838;2023-08-24T00:41:34;23.90;54.00
27492;DHT22;14927;51.210;6.838;2023-08-24T00:44:19;24.00;54.20
27492;DHT22;14927;51.210;6.838;2023-08-24T00:47:04;23.90;54.20
27492;DHT22;14927;51.210;6.838;2023-08-24T00:49:48;23.90;54.30
27492;DHT22;14927;51.210;6.838;2023-08-24T00:52:37;23.90;54.30
27492;DHT22;14927;51.210;6.838;2023-08-24T00:55:24;24.00;54.70
27492;DHT22;14927;51.210;6.838;2023-08-24T00:58:09;23.80;54.50
27492;DHT22;14927;51.210;6.838;2023-08-24T01:00:54;23.80;54.60
27492;DHT22;14927;51.210;6.838;2023-08-24T01:03:39;23.80;54.70
27492;DHT22;14927;51.210;6.838;2023-08-24T01:06:24;23.80;54.90
27492;DHT22;14927;51.210;6.838;2023-08-24T01:09:09;23.80;55.00
27492;DHT22;14927;51.210;6.838;2023-08-24T01:13:02;23.70;55.10
27492;DHT22;14927;51.210;6.838;2023-08-24T01:15:47;23.70;55.70
27492;DHT22;14927;51.210;6.838;2023-08-24T01:18:42;23.70;55.60
27492;DHT22;14927;51.210;6.838;2023-08-24T01:21:28;23.60;55.20
27492;DHT22;14927;51.210;6.838;2023-08-24T01:24:36;23.60;55.50
27492;DHT22;14927;51.210;6.838;2023-08-24T01:27:25;23.60;56.20
27492;DHT22;14927;51.210;6.838;2023-08-24T01:30:11;23.50;55.80
27492;DHT22;14927;51.210;6.838;2023-08-24T01:32:56;23.40;55.90
27492;DHT22;14927;51.210;6.838;2023-08-24T01:35:41;23.40;56.10
27492;DHT22;14927;51.210;6.838;2023-08-24T01:38:26;23.40;56.30
27492;DHT22;14927;51.210;6.838;2023-08-24T01:41:19;23.40;56.40
27492;DHT22;14927;51.210;6.838;2023-08-24T01:44:08;23.30;56.70
27492;DHT22;14927;51.210;6.838;2023-08-24T01:46:54;23.50;56.60
27492;DHT22;14927;51.210;6.838;2023-08-24T01:49:40;23.30;56.60
27492;DHT22;14927;51.210;6.838;2023-08-24T01:52:26;23.30;56.60
27492;DHT22;14927;51.210;6.838;2023-08-24T01:55:11;23.30;56.70
27492;DHT22;14927;51.210;6.838;2023-08-24T01:57:56;23.20;56.90
27492;DHT22;14927;51.210;6.838;2023-08-24T02:00:41;23.20;57.00
27492;DHT22;14927;51.210;6.838;2023-08-24T02:03:26;23.20;57.10
27492;DHT22;14927;51.210;6.838;2023-08-24T02:06:10;23.20;57.20
27492;DHT22;14927;51.210;6.838;2023-08-24T02:08:55;23.20;57.30
27492;DHT22;14927;51.210;6.838;2023-08-24T02:11:39;23.20;57.40
27492;DHT22;14927;51.210;6.838;2023-08-24T02:14:24;23.10;57.30
27492;DHT22;14927;51.210;6.838;2023-08-24T02:17:09;23.10;57.20
27492;DHT22;14927;51.210;6.838;2023-08-24T02:19:55;23.10;57.20
27492;DHT22;14927;51.210;6.838;2023-08-24T02:22:40;23.10;57.20
27492;DHT22;14927;51.210;6.838;2023-08-24T02:25:24;23.10;57.20
27492;DHT22;14927;51.210;6.838;2023-08-24T02:28:09;23.10;57.20
27492;DHT22;14927;51.210;6.838;2023-08-24T02:30:54;23.10;57.20
27492;DHT22;14927;51.210;6.838;2023-08-24T02:33:39;23.10;57.20
27492;DHT22;14927;51.210;6.838;2023-08-24T02:36:23;23.10;57.30
27492;DHT22;14927;51.210;6.838;2023-08-24T02:39:08;23.00;57.40
27492;DHT22;14927;51.210;6.838;2023-08-24T02:41:52;23.00;57.40
27492;DHT22;14927;51.210;6.838;2023-08-24T02:44:37;22.90;57.40
27492;DHT22;14927;51.210;6.838;2023-08-24T02:47:22;23.00;57.40
27492;DHT22;14927;51.210;6.838;2023-08-24T02:50:07;22.90;57.40
27492;DHT22;14927;51.210;6.838;2023-08-24T02:52:51;23.00;57.50
27492;DHT22;14927;51.210;6.838;2023-08-24T02:55:36;22.90;57.50
27492;DHT22;14927;51.210;6.838;2023-08-24T02:58:21;22.90;57.50
27492;DHT22;14927;51.210;6.838;2023-08-24T03:01:06;22.90;57.50
27492;DHT22;14927;51.210;6.838;2023-08-24T03:03:52;22.90;57.50
27492;DHT22;14927;51.210;6.838;2023-08-24T03:06:36;22.90;57.50
27492;DHT22;14927;51.210;6.838;2023-08-24T03:09:21;22.90;57.50
27492;DHT22;14927;51.210;6.838;2023-08-24T03:12:05;22.90;57.50
27492;DHT22;14927;51.210;6.838;2023-08-24T03:14:53;22.90;57.50
27492;DHT22;14927;51.210;6.838;2023-08-24T03:17:38;22.90;57.60
27492;DHT22;14927;51.210;6.838;2023-08-24T03:20:23;22.90;57.60
27492;DHT22;14927;51.210;6.838;2023-08-24T03:23:08;22.90;57.70
27492;DHT22;14927;51.210;6.838;2023-08-24T03:25:53;22.90;57.80
27492;DHT22;14927;51.210;6.838;2023-08-24T03:28:39;22.80;57.70
27492;DHT22;14927;51.210;6.838;2023-08-24T03:31:24;22.90;57.70
27492;DHT22;14927;51.210;6.838;2023-08-24T03:34:10;22.90;57.70
27492;DHT22;14927;51.210;6.838;2023-08-24T03:36:55;22.90;57.60
27492;DHT22;14927;51.210;6.838;2023-08-24T03:39:40;22.90;57.60
27492;DHT22;14927;51.210;6.838;2023-08-24T03:42:25;22.90;57.60
27492;DHT22;14927;51.210;6.838;2023-08-24T03:45:09;22.90;57.50
27492;DHT22;14927;51.210;6.838;2023-08-24T03:47:54;22.90;57.40
27492;DHT22;14927;51.210;6.838;2023-08-24T03:50:39;23.00;57.40
27492;DHT22;14927;51.210;6.838;2023-08-24T03:53:25;23.00;57.30
27492;DHT22;14927;51.210;6.838;2023-08-24T03:56:09;23.00;57.10
27492;DHT22;14927;51.210;6.838;2023-08-24T03:58:54;23.00;57.10
27492;DHT22;14927;51.210;6.838;2023-08-24T04:01:39;23.00;57.20
27492;DHT22;14927;51.210;6.838;2023-08-24T04:04:23;23.00;57.30
27492;DHT22;14927;51.210;6.838;2023-08-24T04:07:08;23.00;57.50
27492;DHT22;14927;51.210;6.838;2023-08-24T04:09:52;23.00;57.80
27492;DHT22;14927;51.210;6.838;2023-08-24T04:12:37;23.00;58.00
27492;DHT22;14927;51.210;6.838;2023-08-24T04:15:22;23.00;58.60
27492;DHT22;14927;51.210;6.838;2023-08-24T04:18:06;23.00;57.80
27492;DHT22;14927;51.210;6.838;2023-08-24T04:20:52;23.10;57.80
27492;DHT22;14927;51.210;6.838;2023-08-24T04:23:37;23.10;58.00
27492;DHT22;14927;51.210;6.838;2023-08-24T04:26:22;23.10;58.20
27492;DHT22;14927;51.210;6.838;2023-08-24T04:29:07;23.10;58.50
27492;DHT22;14927;51.210;6.838;2023-08-24T04:31:52;23.10;58.80
27492;DHT22;14927;51.210;6.838;2023-08-24T04:34:36;23.10;59.00
27492;DHT22;14927;51.210;6.838;2023-08-24T04:37:21;23.20;59.60
27492;DHT22;14927;51.210;6.838;2023-08-24T04:40:06;23.20;60.30
27492;DHT22;14927;51.210;6.838;2023-08-24T04:42:55;23.10;60.60
27492;DHT22;14927;51.210;6.838;2023-08-24T04:45:41;23.20;60.80
27492;DHT22;14927;51.210;6.838;2023-08-24T04:48:25;23.20;61.20
27492;DHT22;14927;51.210;6.838;2023-08-24T04:51:10;23.20;61.60
27492;DHT22;14927;51.210;6.838;2023-08-24T04:53:55;23.20;61.90
27492;DHT22;14927;51.210;6.838;2023-08-24T04:56:39;23.20;62.10
27492;DHT22;14927;51.210;6.838;2023-08-24T04:59:24;23.10;62.20
27492;DHT22;14927;51.210;6.838;2023-08-24T05:02:09;23.10;62.20
27492;DHT22;14927;51.210;6.838;2023-08-24T05:04:53;23.20;62.20
27492;DHT22;14927;51.210;6.838;2023-08-24T05:07:38;23.20;62.10
27492;DHT22;14927;51.210;6.838;2023-08-24T05:10:23;23.10;62.00
27492;DHT22;14927;51.210;6.838;2023-08-24T05:13:08;23.00;61.80
27492;DHT22;14927;51.210;6.838;2023-08-24T05:15:53;23.10;61.80
27492;DHT22;14927;51.210;6.838;2023-08-24T05:18:38;23.10;61.80
27492;DHT22;14927;51.210;6.838;2023-08-24T05:21:22;23.10;61.80
27492;DHT22;14927;51.210;6.838;2023-08-24T05:24:07;23.20;62.10
27492;DHT22;14927;51.210;6.838;2023-08-24T05:26:51;23.20;62.00
27492;DHT22;14927;51.210;6.838;2023-08-24T05:29:36;23.20;62.20
27492;DHT22;14927;51.210;6.838;2023-08-24T05:32:21;23.10;62.10
27492;DHT22;14927;51.210;6.838;2023-08-24T05:35:07;23.10;62.00
27492;DHT22;14927;51.210;6.838;2023-08-24T05:37:52;23.10;62.00
27492;DHT22;14927;51.210;6.838;2023-08-24T05:40:37;23.10;62.00
27492;DHT22;14927;51.210;6.838;2023-08-24T05:43:26;23.20;62.20
27492;DHT22;14927;51.210;6.838;2023-08-24T05:46:14;23.20;62.20
27492;DHT22;14927;51.210;6.838;2023-08-24T05:48:58;23.20;62.10
27492;DHT22;14927;51.210;6.838;2023-08-24T05:51:43;23.10;62.20
27492;DHT22;14927;51.210;6.838;2023-08-24T05:54:28;23.10;62.30
27492;DHT22;14927;51.210;6.838;2023-08-24T05:57:13;23.20;62.40
27492;DHT22;14927;51.210;6.838;2023-08-24T05:59:57;23.20;62.50
27492;DHT22;14927;51.210;6.838;2023-08-24T06:02:42;23.20;62.20
27492;DHT22;14927;51.210;6.838;2023-08-24T06:05:27;23.20;62.80
27492;DHT22;14927;51.210;6.838;2023-08-24T06:08:11;23.20;62.10
27492;DHT22;14927;51.210;6.838;2023-08-24T06:10:57;23.20;62.40
27492;DHT22;14927;51.210;6.838;2023-08-24T06:13:42;23.20;62.20
27492;DHT22;14927;51.210;6.838;2023-08-24T06:16:30;23.20;62.10
27492;DHT22;14927;51.210;6.838;2023-08-24T06:19:15;23.20;62.60
27492;DHT22;14927;51.210;6.838;2023-08-24T06:21:59;23.20;62.40
27492;DHT22;14927;51.210;6.838;2023-08-24T06:24:44;23.30;62.50
27492;DHT22;14927;51.210;6.838;2023-08-24T06:27:28;23.30;62.50
27492;DHT22;14927;51.210;6.838;2023-08-24T06:30:13;23.30;62.60
27492;DHT22;14927;51.210;6.838;2023-08-24T06:32:58;23.30;62.70
27492;DHT22;14927;51.210;6.838;2023-08-24T06:35:43;23.30;62.80
27492;DHT22;14927;51.210;6.838;2023-08-24T06:38:28;23.30;62.90
27492;DHT22;14927;51.210;6.838;2023-08-24T06:41:13;23.30;63.00
27492;DHT22;14927;51.210;6.838;2023-08-24T06:43:58;23.40;63.20
27492;DHT22;14927;51.210;6.838;2023-08-24T06:46:43;23.30;63.40
27492;DHT22;14927;51.210;6.838;2023-08-24T06:49:28;23.40;63.50
27492;DHT22;14927;51.210;6.838;2023-08-24T06:52:12;23.40;63.60
27492;DHT22;14927;51.210;6.838;2023-08-24T06:54:57;23.40;63.70
27492;DHT22;14927;51.210;6.838;2023-08-24T06:57:48;23.50;63.70
27492;DHT22;14927;51.210;6.838;2023-08-24T07:00:35;23.50;63.90
27492;DHT22;14927;51.210;6.838;2023-08-24T07:03:19;23.60;63.70
27492;DHT22;14927;51.210;6.838;2023-08-24T07:06:07;23.60;63.70
27492;DHT22;14927;51.210;6.838;2023-08-24T07:08:51;23.70;63.80
27492;DHT22;14927;51.210;6.838;2023-08-24T07:11:36;23.70;63.50
27492;DHT22;14927;51.210;6.838;2023-08-24T07:14:21;23.80;63.50
27492;DHT22;14927;51.210;6.838;2023-08-24T07:17:06;23.80;63.30
27492;DHT22;14927;51.210;6.838;2023-08-24T07:19:51;23.90;63.30
27492;DHT22;14927;51.210;6.838;2023-08-24T07:22:35;23.90;63.00
27492;DHT22;14927;51.210;6.838;2023-08-24T07:25:20;24.00;63.00
27492;DHT22;14927;51.210;6.838;2023-08-24T07:28:06;24.10;62.90
27492;DHT22;14927;51.210;6.838;2023-08-24T07:30:51;24.10;62.70
27492;DHT22;14927;51.210;6.838;2023-08-24T07:33:41;24.20;62.20
27492;DHT22;14927;51.210;6.838;2023-08-24T07:36:30;24.30;62.00
27492;DHT22;14927;51.210;6.838;2023-08-24T07:39:15;24.30;62.40
27492;DHT22;14927;51.210;6.838;2023-08-24T07:41:59;24.40;61.40
27492;DHT22;14927;51.210;6.838;2023-08-24T07:44:44;24.50;61.20
27492;DHT22;14927;51.210;6.838;2023-08-24T07:47:30;24.60;61.10
27492;DHT22;14927;51.210;6.838;2023-08-24T07:50:15;24.70;60.60
27492;DHT22;14927;51.210;6.838;2023-08-24T07:52:59;24.70;60.20
27492;DHT22;14927;51.210;6.838;2023-08-24T07:55:45;24.80;59.80
27492;DHT22;14927;51.210;6.838;2023-08-24T07:58:30;24.90;59.60
27492;DHT22;14927;51.210;6.838;2023-08-24T08:01:16;25.00;59.40
27492;DHT22;14927;51.210;6.838;2023-08-24T08:04:01;25.10;59.40
27492;DHT22;14927;51.210;6.838;2023-08-24T08:06:46;25.20;58.80
27492;DHT22;14927;51.210;6.838;2023-08-24T08:09:31;25.30;58.40
27492;DHT22;14927;51.210;6.838;2023-08-24T08:12:15;25.30;58.20
27492;DHT22;14927;51.210;6.838;2023-08-24T08:15:00;25.40;57.70
27492;DHT22;14927;51.210;6.838;2023-08-24T08:17:45;25.50;57.20
27492;DHT22;14927;51.210;6.838;2023-08-24T08:20:30;25.60;56.90
27492;DHT22;14927;51.210;6.838;2023-08-24T08:23:15;25.70;56.50
27492;DHT22;14927;51.210;6.838;2023-08-24T08:26:00;25.80;56.20
27492;DHT22;14927;51.210;6.838;2023-08-24T08:28:45;25.90;55.90
27492;DHT22;14927;51.210;6.838;2023-08-24T08:31:29;25.90;55.50
27492;DHT22;14927;51.210;6.838;2023-08-24T08:34:14;26.00;55.50
27492;DHT22;14927;51.210;6.838;2023-08-24T08:37:00;26.10;55.40
27492;DHT22;14927;51.210;6.838;2023-08-24T08:39:45;26.20;54.80
27492;DHT22;14927;51.210;6.838;2023-08-24T08:42:30;26.30;54.40
27492;DHT22;14927;51.210;6.838;2023-08-24T08:45:15;26.40;54.20
27492;DHT22;14927;51.210;6.838;2023-08-24T08:48:01;26.50;53.90
27492;DHT22;14927;51.210;6.838;2023-08-24T08:50:49;26.60;54.10
27492;DHT22;14927;51.210;6.838;2023-08-24T08:53:34;26.70;54.20
27492;DHT22;14927;51.210;6.838;2023-08-24T08:56:19;26.80;53.90
27492;DHT22;14927;51.210;6.838;2023-08-24T08:59:07;26.90;53.80
27492;DHT22;14927;51.210;6.838;2023-08-24T09:01:52;27.00;53.40
27492;DHT22;14927;51.210;6.838;2023-08-24T09:04:37;27.10;54.30
27492;DHT22;14927;51.210;6.838;2023-08-24T09:07:23;27.10;53.30
27492;DHT22;14927;51.210;6.838;2023-08-24T09:10:08;27.20;53.10
27492;DHT22;14927;51.210;6.838;2023-08-24T09:12:53;27.30;53.00
27492;DHT22;14927;51.210;6.838;2023-08-24T09:15:37;27.40;52.90
27492;DHT22;14927;51.210;6.838;2023-08-24T09:18:22;27.50;52.70
27492;DHT22;14927;51.210;6.838;2023-08-24T09:21:18;27.50;52.10
27492;DHT22;14927;51.210;6.838;2023-08-24T09:24:03;27.60;51.70
27492;DHT22;14927;51.210;6.838;2023-08-24T09:26:48;27.70;51.30
27492;DHT22;14927;51.210;6.838;2023-08-24T09:29:36;27.80;51.20
27492;DHT22;14927;51.210;6.838;2023-08-24T09:35:14;27.90;50.70
27492;DHT22;14927;51.210;6.838;2023-08-24T09:38:00;28.00;51.00
27492;DHT22;14927;51.210;6.838;2023-08-24T09:40:46;28.10;50.90
27492;DHT22;14927;51.210;6.838;2023-08-24T09:43:35;28.10;50.70
27492;DHT22;14927;51.210;6.838;2023-08-24T09:46:19;28.20;50.50
27492;DHT22;14927;51.210;6.838;2023-08-24T09:49:09;28.30;50.10
27492;DHT22;14927;51.210;6.838;2023-08-24T09:51:56;28.30;49.70
27492;DHT22;14927;51.210;6.838;2023-08-24T09:54:44;28.40;49.90
27492;DHT22;14927;51.210;6.838;2023-08-24T09:57:30;28.50;49.70
27492;DHT22;14927;51.210;6.838;2023-08-24T10:00:24;28.60;49.50
27492;DHT22;14927;51.210;6.838;2023-08-24T10:03:11;28.70;49.50
27492;DHT22;14927;51.210;6.838;2023-08-24T10:06:00;28.70;49.30
27492;DHT22;14927;51.210;6.838;2023-08-24T10:08:54;28.80;49.20
27492;DHT22;14927;51.210;6.838;2023-08-24T10:11:49;28.90;48.40
27492;DHT22;14927;51.210;6.838;2023-08-24T10:14:53;28.90;48.60
27492;DHT22;14927;51.210;6.838;2023-08-24T10:17:44;29.00;48.50
27492;DHT22;14927;51.210;6.838;2023-08-24T10:20:29;29.10;49.60
27492;DHT22;14927;51.210;6.838;2023-08-24T10:23:15;29.20;48.80
27492;DHT22;14927;51.210;6.838;2023-08-24T10:26:03;29.30;48.50
27492;DHT22;14927;51.210;6.838;2023-08-24T10:28:48;29.40;48.20
27492;DHT22;14927;51.210;6.838;2023-08-24T10:31:39;29.40;48.30
27492;DHT22;14927;51.210;6.838;2023-08-24T10:34:24;29.50;48.00
27492;DHT22;14927;51.210;6.838;2023-08-24T10:37:10;29.60;47.80
27492;DHT22;14927;51.210;6.838;2023-08-24T10:39:55;29.60;47.40
27492;DHT22;14927;51.210;6.838;2023-08-24T10:42:46;29.70;47.10
27492;DHT22;14927;51.210;6.838;2023-08-24T10:45:54;29.80;46.30
27492;DHT22;14927;51.210;6.838;2023-08-24T10:51:25;29.90;46.50
27492;DHT22;14927;51.210;6.838;2023-08-24T10:54:10;29.90;46.60
27492;DHT22;14927;51.210;6.838;2023-08-24T10:56:55;30.00;46.30
27492;DHT22;14927;51.210;6.838;2023-08-24T10:59:44;30.00;46.50
27492;DHT22;14927;51.210;6.838;2023-08-24T11:02:28;30.10;46.30
27492;DHT22;14927;51.210;6.838;2023-08-24T11:08:06;30.20;45.90
27492;DHT22;14927;51.210;6.838;2023-08-24T11:10:51;30.20;45.80
27492;DHT22;14927;51.210;6.838;2023-08-24T11:14:31;30.30;45.80
27492;DHT22;14927;51.210;6.838;2023-08-24T11:17:18;30.30;45.50
27492;DHT22;14927;51.210;6.838;2023-08-24T11:20:04;30.40;45.10
27492;DHT22;14927;51.210;6.838;2023-08-24T11:22:50;30.40;45.40
27492;DHT22;14927;51.210;6.838;2023-08-24T11:25:40;30.50;45.30
27492;DHT22;14927;51.210;6.838;2023-08-24T11:28:26;30.50;45.40
27492;DHT22;14927;51.210;6.838;2023-08-24T11:31:11;30.60;45.50
27492;DHT22;14927;51.210;6.838;2023-08-24T11:33:56;30.60;45.20
27492;DHT22;14927;51.210;6.838;2023-08-24T11:36:46;30.60;45.10
27492;DHT22;14927;51.210;6.838;2023-08-24T11:39:31;30.60;45.00
27492;DHT22;14927;51.210;6.838;2023-08-24T11:42:17;30.60;44.80
27492;DHT22;14927;51.210;6.838;2023-08-24T11:45:11;30.70;45.00
27492;DHT22;14927;51.210;6.838;2023-08-24T11:47:58;30.70;44.80
27492;DHT22;14927;51.210;6.838;2023-08-24T11:50:44;30.70;45.30
27492;DHT22;14927;51.210;6.838;2023-08-24T11:53:29;30.70;45.20
27492;DHT22;14927;51.210;6.838;2023-08-24T11:56:16;30.70;45.20
27492;DHT22;14927;51.210;6.838;2023-08-24T11:59:01;30.90;45.20
27492;DHT22;14927;51.210;6.838;2023-08-24T12:01:46;30.80;44.90
27492;DHT22;14927;51.210;6.838;2023-08-24T12:04:41;30.80;44.60
27492;DHT22;14927;51.210;6.838;2023-08-24T12:07:27;30.90;44.30
27492;DHT22;14927;51.210;6.838;2023-08-24T12:10:12;30.90;44.50
27492;DHT22;14927;51.210;6.838;2023-08-24T12:13:04;30.90;44.50
27492;DHT22;14927;51.210;6.838;2023-08-24T12:18:29;31.00;44.40
27492;DHT22;14927;51.210;6.838;2023-08-24T12:21:15;31.00;44.40
27492;DHT22;14927;51.210;6.838;2023-08-24T12:24:02;31.00;44.10
27492;DHT22;14927;51.210;6.838;2023-08-24T12:26:56;31.00;44.30
27492;DHT22;14927;51.210;6.838;2023-08-24T12:29:47;31.00;45.00
27492;DHT22;14927;51.210;6.838;2023-08-24T12:32:45;31.00;45.60
27492;DHT22;14927;51.210;6.838;2023-08-24T12:35:31;31.00;46.20
27492;DHT22;14927;51.210;6.838;2023-08-24T12:38:16;30.90;46.70
27492;DHT22;14927;51.210;6.838;2023-08-24T12:41:01;30.90;48.50
27492;DHT22;14927;51.210;6.838;2023-08-24T12:43:45;30.90;48.10
27492;DHT22;14927;51.210;6.838;2023-08-24T12:46:31;30.80;48.50
27492;DHT22;14927;51.210;6.838;2023-08-24T12:49:16;30.70;48.50
27492;DHT22;14927;51.210;6.838;2023-08-24T12:52:01;30.70;49.00
27492;DHT22;14927;51.210;6.838;2023-08-24T12:54:46;30.60;49.40
27492;DHT22;14927;51.210;6.838;2023-08-24T12:57:30;30.60;49.90
27492;DHT22;14927;51.210;6.838;2023-08-24T13:00:15;30.60;49.60
27492;DHT22;14927;51.210;6.838;2023-08-24T13:03:00;30.50;49.80
27492;DHT22;14927;51.210;6.838;2023-08-24T13:05:45;30.60;49.30
27492;DHT22;14927;51.210;6.838;2023-08-24T13:08:30;30.50;49.20
27492;DHT22;14927;51.210;6.838;2023-08-24T13:11:14;30.40;49.50
27492;DHT22;14927;51.210;6.838;2023-08-24T13:13:59;30.40;49.80
27492;DHT22;14927;51.210;6.838;2023-08-24T13:16:43;30.40;50.00
27492;DHT22;14927;51.210;6.838;2023-08-24T13:19:29;30.30;49.90
27492;DHT22;14927;51.210;6.838;2023-08-24T13:22:14;30.30;49.70
27492;DHT22;14927;51.210;6.838;2023-08-24T13:24:59;30.30;49.80
27492;DHT22;14927;51.210;6.838;2023-08-24T13:27:44;30.30;49.70
27492;DHT22;14927;51.210;6.838;2023-08-24T13:30:29;30.20;49.70
27492;DHT22;14927;51.210;6.838;2023-08-24T13:33:13;30.10;50.00
27492;DHT22;14927;51.210;6.838;2023-08-24T13:35:58;30.10;50.50
27492;DHT22;14927;51.210;6.838;2023-08-24T13:38:46;30.10;50.50
27492;DHT22;14927;51.210;6.838;2023-08-24T13:41:31;30.00;50.80
27492;DHT22;14927;51.210;6.838;2023-08-24T13:44:15;29.90;51.30
27492;DHT22;14927;51.210;6.838;2023-08-24T13:47:00;29.90;51.40
27492;DHT22;14927;51.210;6.838;2023-08-24T13:49:45;29.90;51.40
27492;DHT22;14927;51.210;6.838;2023-08-24T13:52:30;29.90;51.70
27492;DHT22;14927;51.210;6.838;2023-08-24T13:55:15;29.90;51.90
27492;DHT22;14927;51.210;6.838;2023-08-24T13:58:00;29.80;51.90
27492;DHT22;14927;51.210;6.838;2023-08-24T14:00:44;29.80;52.50
27492;DHT22;14927;51.210;6.838;2023-08-24T14:03:29;29.80;52.70
27492;DHT22;14927;51.210;6.838;2023-08-24T14:06:14;29.70;52.90
27492;DHT22;14927;51.210;6.838;2023-08-24T14:08:58;29.70;53.10
27492;DHT22;14927;51.210;6.838;2023-08-24T14:11:43;29.70;53.20
27492;DHT22;14927;51.210;6.838;2023-08-24T14:14:28;29.60;53.00
27492;DHT22;14927;51.210;6.838;2023-08-24T14:17:12;29.60;53.10
27492;DHT22;14927;51.210;6.838;2023-08-24T14:19:57;29.60;53.20
27492;DHT22;14927;51.210;6.838;2023-08-24T14:22:42;29.50;54.00
27492;DHT22;14927;51.210;6.838;2023-08-24T14:25:26;29.50;53.30
27492;DHT22;14927;51.210;6.838;2023-08-24T14:28:11;29.50;53.40
27492;DHT22;14927;51.210;6.838;2023-08-24T14:30:56;29.60;53.50
27492;DHT22;14927;51.210;6.838;2023-08-24T14:33:41;29.40;53.50
27492;DHT22;14927;51.210;6.838;2023-08-24T14:36:25;29.40;53.70
27492;DHT22;14927;51.210;6.838;2023-08-24T14:39:10;29.40;53.90
27492;DHT22;14927;51.210;6.838;2023-08-24T14:41:54;29.30;53.90
27492;DHT22;14927;51.210;6.838;2023-08-24T14:44:39;29.30;54.00
27492;DHT22;14927;51.210;6.838;2023-08-24T14:47:23;29.30;54.10
27492;DHT22;14927;51.210;6.838;2023-08-24T14:50:08;29.30;54.40
27492;DHT22;14927;51.210;6.838;2023-08-24T14:52:54;29.20;54.40
27492;DHT22;14927;51.210;6.838;2023-08-24T14:55:39;29.20;53.90
27492;DHT22;14927;51.210;6.838;2023-08-24T14:58:26;29.10;54.10
27492;DHT22;14927;51.210;6.838;2023-08-24T15:01:11;29.10;54.30
27492;DHT22;14927;51.210;6.838;2023-08-24T15:03:56;29.20;54.60
27492;DHT22;14927;51.210;6.838;2023-08-24T15:06:40;28.90;54.70
27492;DHT22;14927;51.210;6.838;2023-08-24T15:09:25;28.90;54.80
27492;DHT22;14927;51.210;6.838;2023-08-24T15:12:10;28.70;54.50
27492;DHT22;14927;51.210;6.838;2023-08-24T15:15:01;28.70;54.40
27492;DHT22;14927;51.210;6.838;2023-08-24T15:17:46;28.70;54.80
27492;DHT22;14927;51.210;6.838;2023-08-24T15:20:32;28.60;54.40
27492;DHT22;14927;51.210;6.838;2023-08-24T15:23:26;28.60;54.70
27492;DHT22;14927;51.210;6.838;2023-08-24T15:26:11;28.50;55.30
27492;DHT22;14927;51.210;6.838;2023-08-24T15:29:11;28.50;55.20
27492;DHT22;14927;51.210;6.838;2023-08-24T15:31:57;28.40;55.80
27492;DHT22;14927;51.210;6.838;2023-08-24T15:34:42;28.40;55.50
27492;DHT22;14927;51.210;6.838;2023-08-24T15:37:27;28.30;55.70
27492;DHT22;14927;51.210;6.838;2023-08-24T15:40:12;28.20;56.00
27492;DHT22;14927;51.210;6.838;2023-08-24T15:42:57;28.20;56.10
27492;DHT22;14927;51.210;6.838;2023-08-24T15:45:42;28.10;56.20
27492;DHT22;14927;51.210;6.838;2023-08-24T15:48:26;28.10;56.40
27492;DHT22;14927;51.210;6.838;2023-08-24T15:51:11;28.00;57.30
27492;DHT22;14927;51.210;6.838;2023-08-24T15:53:56;28.00;57.20
27492;DHT22;14927;51.210;6.838;2023-08-24T15:56:54;27.90;57.30
27492;DHT22;14927;51.210;6.838;2023-08-24T15:59:40;27.80;57.50
27492;DHT22;14927;51.210;6.838;2023-08-24T16:02:25;27.80;57.30
27492;DHT22;14927;51.210;6.838;2023-08-24T16:05:10;27.70;57.30
27492;DHT22;14927;51.210;6.838;2023-08-24T16:07:59;27.70;57.90
27492;DHT22;14927;51.210;6.838;2023-08-24T16:10:44;27.60;58.40
27492;DHT22;14927;51.210;6.838;2023-08-24T16:13:35;27.40;58.60
27492;DHT22;14927;51.210;6.838;2023-08-24T16:16:19;27.50;58.70
27492;DHT22;14927;51.210;6.838;2023-08-24T16:19:04;27.50;58.90
27492;DHT22;14927;51.210;6.838;2023-08-24T16:21:51;27.40;59.00
27492;DHT22;14927;51.210;6.838;2023-08-24T16:24:36;27.40;59.50
27492;DHT22;14927;51.210;6.838;2023-08-24T16:27:20;27.40;59.70
27492;DHT22;14927;51.210;6.838;2023-08-24T16:30:05;27.30;59.80
27492;DHT22;14927;51.210;6.838;2023-08-24T16:32:51;27.30;60.10
27492;DHT22;14927;51.210;6.838;2023-08-24T16:35:36;27.30;60.30
27492;DHT22;14927;51.210;6.838;2023-08-24T16:38:21;27.20;60.30
27492;DHT22;14927;51.210;6.838;2023-08-24T16:41:05;27.20;60.40
27492;DHT22;14927;51.210;6.838;2023-08-24T16:43:50;27.20;60.40
27492;DHT22;14927;51.210;6.838;2023-08-24T16:46:34;27.20;60.40
27492;DHT22;14927;51.210;6.838;2023-08-24T16:49:19;27.20;60.60
27492;DHT22;14927;51.210;6.838;2023-08-24T16:52:04;27.10;60.90
27492;DHT22;14927;51.210;6.838;2023-08-24T16:54:49;27.10;62.00
27492;DHT22;14927;51.210;6.838;2023-08-24T16:57:34;27.10;61.10
27492;DHT22;14927;51.210;6.838;2023-08-24T17:00:19;27.10;61.10
27492;DHT22;14927;51.210;6.838;2023-08-24T17:03:03;27.10;61.10
27492;DHT22;14927;51.210;6.838;2023-08-24T17:05:49;27.10;61.10
27492;DHT22;14927;51.210;6.838;2023-08-24T17:08:35;27.10;60.90
27492;DHT22;14927;51.210;6.838;2023-08-24T17:11:20;27.10;61.10
27492;DHT22;14927;51.210;6.838;2023-08-24T17:14:08;27.10;61.10
27492;DHT22;14927;51.210;6.838;2023-08-24T17:16:53;27.00;61.10
27492;DHT22;14927;51.210;6.838;2023-08-24T17:19:38;27.00;61.20
27492;DHT22;14927;51.210;6.838;2023-08-24T17:22:23;27.00;61.20
27492;DHT22;14927;51.210;6.838;2023-08-24T17:25:08;27.00;61.50
27492;DHT22;14927;51.210;6.838;2023-08-24T17:27:53;27.00;61.50
27492;DHT22;14927;51.210;6.838;2023-08-24T17:30:44;27.00;61.70
27492;DHT22;14927;51.210;6.838;2023-08-24T17:33:33;26.90;61.80
27492;DHT22;14927;51.210;6.838;2023-08-24T17:36:17;26.90;61.50
27492;DHT22;14927;51.210;6.838;2023-08-24T17:39:02;26.90;61.20